createdAt,value
2018-03-30T00:01:04.227Z,93.40
2018-03-30T00:03:32.766Z,92.60
2018-03-30T00:06:00.168Z,92.60
2018-03-30T00:08:27.668Z,92.50
2018-03-30T00:10:55.246Z,92.30
2018-03-30T00:13:22.726Z,93.60
2018-03-30T00:15:50.046Z,93.10
2018-03-30T00:18:18.209Z,94.90
2018-03-30T00:20:45.886Z,94.90
2018-03-30T00:23:13.554Z,95.40
2018-03-30T00:25:40.827Z,95.30
2018-03-30T00:28:08.207Z,95.00
2018-03-30T00:30:35.806Z,95.60
2018-03-30T00:33:03.266Z,95.00
2018-03-30T00:35:30.686Z,94.60
2018-03-30T00:37:58.368Z,94.50
2018-03-30T00:40:25.853Z,94.10
2018-03-30T00:42:53.226Z,94.50
2018-03-30T00:45:20.669Z,91.60
2018-03-30T00:47:48.126Z,94.40
2018-03-30T00:50:15.566Z,94.60
2018-03-30T00:55:15.805Z,95.00
2018-03-30T00:57:43.187Z,96.20
2018-03-30T01:00:10.800Z,97.20
2018-03-30T01:02:38.888Z,97.70
2018-03-30T01:05:06.519Z,97.70
2018-03-30T01:07:34.210Z,97.90
2018-03-30T01:10:01.649Z,98.00
2018-03-30T01:12:29.068Z,98.00
2018-03-30T01:14:56.428Z,98.00
2018-03-30T01:17:23.830Z,98.00
2018-03-30T01:19:51.209Z,97.80
2018-03-30T01:22:18.548Z,97.60
2018-03-30T01:24:45.908Z,97.50
2018-03-30T01:27:13.648Z,97.70
2018-03-30T01:29:41.148Z,97.40
2018-03-30T01:32:08.390Z,97.40
2018-03-30T01:34:35.788Z,97.40
2018-03-30T01:37:03.208Z,97.40
2018-03-30T01:39:30.929Z,97.40
2018-03-30T01:41:58.369Z,97.40
2018-03-30T01:44:26.508Z,97.20
2018-03-30T01:46:53.888Z,96.90
2018-03-30T01:49:21.508Z,96.50
2018-03-30T01:51:48.888Z,96.50
2018-03-30T01:54:16.220Z,96.40
2018-03-30T01:56:43.586Z,96.40
2018-03-30T01:59:11.068Z,96.40
2018-03-30T02:01:38.386Z,96.40
2018-03-30T02:04:05.727Z,96.70
2018-03-30T02:06:34.208Z,96.70
2018-03-30T02:09:01.729Z,96.70
2018-03-30T02:11:29.087Z,96.90
2018-03-30T02:13:57.406Z,97.20
2018-03-30T02:16:24.927Z,97.20
2018-03-30T02:18:52.368Z,97.40
2018-03-30T02:21:19.886Z,97.40
2018-03-30T02:23:47.487Z,97.30
2018-03-30T02:26:14.907Z,97.40
2018-03-30T02:28:42.208Z,97.30
2018-03-30T02:31:09.727Z,97.30
2018-03-30T02:33:37.168Z,97.30
2018-03-30T02:36:04.567Z,97.00
2018-03-30T02:38:32.287Z,96.90
2018-03-30T02:40:59.808Z,96.90
2018-03-30T02:43:27.207Z,97.00
2018-03-30T02:45:54.786Z,97.00
2018-03-30T02:48:22.148Z,96.90
2018-03-30T02:50:50.071Z,96.80
2018-03-30T02:53:17.408Z,96.60
2018-03-30T02:55:44.832Z,96.60
2018-03-30T02:58:12.447Z,96.60
2018-03-30T03:03:11.271Z,96.50
2018-03-30T03:05:38.746Z,96.40
2018-03-30T03:08:07.328Z,96.50
2018-03-30T03:10:34.666Z,96.50
2018-03-30T03:13:02.887Z,96.50
2018-03-30T03:15:30.526Z,96.50
2018-03-30T03:17:57.966Z,96.50
2018-03-30T03:20:26.526Z,96.60
2018-03-30T03:22:53.846Z,96.60
2018-03-30T03:25:21.567Z,96.50
2018-03-30T03:27:49.027Z,96.50
2018-03-30T03:30:17.147Z,96.20
2018-03-30T03:32:44.846Z,96.20
2018-03-30T03:35:12.286Z,96.00
2018-03-30T03:37:39.706Z,96.10
2018-03-30T03:40:07.770Z,96.30
2018-03-30T03:42:35.155Z,96.30
2018-03-30T03:45:02.651Z,96.30
2018-03-30T03:47:30.046Z,96.00
2018-03-30T03:49:57.549Z,96.10
2018-03-30T03:52:24.945Z,96.10
2018-03-30T03:54:52.346Z,95.90
2018-03-30T03:57:19.692Z,96.00
2018-03-30T03:59:47.166Z,96.30
2018-03-30T04:02:14.551Z,96.40
2018-03-30T04:04:42.078Z,96.30
2018-03-30T04:07:09.431Z,96.30
2018-03-30T04:09:36.872Z,96.40
2018-03-30T04:12:05.092Z,96.40
2018-03-30T04:14:34.590Z,96.40
2018-03-30T04:17:02.127Z,96.60
2018-03-30T04:19:30.411Z,96.80
2018-03-30T04:21:58.767Z,97.10
2018-03-30T04:24:26.187Z,97.10
2018-03-30T04:26:53.968Z,97.10
2018-03-30T04:29:21.275Z,97.10
2018-03-30T04:31:49.006Z,97.10
2018-03-30T04:34:16.888Z,97.00
2018-03-30T04:36:44.268Z,96.90
2018-03-30T04:39:11.747Z,96.70
2018-03-30T04:41:39.567Z,96.40
2018-03-30T04:44:07.867Z,96.80
2018-03-30T04:46:35.146Z,96.80
2018-03-30T04:49:02.587Z,96.70
2018-03-30T04:51:29.867Z,97.10
2018-03-30T04:53:57.348Z,96.90
2018-03-30T04:56:25.667Z,97.00
2018-03-30T04:58:52.947Z,97.00
2018-03-30T05:01:21.246Z,97.60
2018-03-30T05:03:48.905Z,97.20
2018-03-30T05:06:16.706Z,97.40
2018-03-30T05:08:44.126Z,97.40
2018-03-30T05:11:11.610Z,97.40
2018-03-30T05:13:38.927Z,97.60
2018-03-30T05:16:07.206Z,97.60
2018-03-30T05:18:34.626Z,97.70
2018-03-30T05:21:02.046Z,97.40
2018-03-30T05:23:29.529Z,97.50
2018-03-30T05:25:57.087Z,97.70
2018-03-30T05:28:24.525Z,97.40
2018-03-30T05:30:51.844Z,97.20
2018-03-30T05:33:19.585Z,96.90
2018-03-30T05:35:47.170Z,96.70
2018-03-30T05:38:14.605Z,96.60
2018-03-30T05:40:41.908Z,96.70
2018-03-30T05:43:09.306Z,97.00
2018-03-30T05:45:36.989Z,97.30
2018-03-30T05:48:04.466Z,97.20
2018-03-30T05:50:31.766Z,97.10
2018-03-30T05:52:59.826Z,97.10
2018-03-30T05:55:28.066Z,97.00
2018-03-30T05:57:55.406Z,97.00
2018-03-30T06:00:27.642Z,96.70
2018-03-30T06:02:54.994Z,96.40
2018-03-30T06:05:22.374Z,96.70
2018-03-30T06:07:49.831Z,96.70
2018-03-30T06:10:17.369Z,96.70
2018-03-30T06:12:44.550Z,96.60
2018-03-30T06:15:11.769Z,96.40
2018-03-30T06:17:39.046Z,96.20
2018-03-30T06:20:06.464Z,96.10
2018-03-30T06:22:33.748Z,96.00
2018-03-30T06:25:00.996Z,95.90
2018-03-30T06:27:28.213Z,95.80
2018-03-30T06:29:55.587Z,95.80
2018-03-30T06:32:23.580Z,95.50
2018-03-30T06:34:50.838Z,95.40
2018-03-30T06:37:18.746Z,95.10
2018-03-30T06:39:46.207Z,95.00
2018-03-30T06:42:15.085Z,93.90
2018-03-30T06:44:42.449Z,93.80
2018-03-30T06:47:09.814Z,94.00
2018-03-30T06:49:38.525Z,94.70
2018-03-30T06:52:06.206Z,95.00
2018-03-30T06:54:33.605Z,95.00
2018-03-30T06:57:00.834Z,95.10
2018-03-30T06:59:28.252Z,95.10
2018-03-30T07:01:55.655Z,95.00
2018-03-30T07:04:23.012Z,95.10
2018-03-30T07:06:50.307Z,94.90
2018-03-30T07:09:17.668Z,95.00
2018-03-30T07:11:44.926Z,95.00
2018-03-30T07:14:12.678Z,95.00
2018-03-30T07:16:40.106Z,95.30
2018-03-30T07:19:07.549Z,94.60
2018-03-30T07:21:34.926Z,94.10
2018-03-30T07:24:02.494Z,94.40
2018-03-30T07:26:29.766Z,94.30
2018-03-30T07:28:57.828Z,93.90
2018-03-30T07:31:25.105Z,93.60
2018-03-30T07:33:52.361Z,94.00
2018-03-30T07:36:19.804Z,94.10
2018-03-30T07:38:47.206Z,93.90
2018-03-30T07:41:14.586Z,93.70
2018-03-30T07:43:41.845Z,92.70
2018-03-30T07:46:09.185Z,92.40
2018-03-30T07:48:36.608Z,92.60
2018-03-30T07:51:03.968Z,92.80
2018-03-30T07:53:31.345Z,92.70
2018-03-30T07:55:58.886Z,90.90
2018-03-30T07:58:26.206Z,89.40
2018-03-30T08:00:54.072Z,92.60
2018-03-30T08:03:21.491Z,92.50
2018-03-30T08:05:48.779Z,92.30
2018-03-30T08:08:16.286Z,91.80
2018-03-30T08:10:43.968Z,91.20
2018-03-30T08:13:11.266Z,91.00
2018-03-30T08:15:38.687Z,91.30
2018-03-30T08:18:06.045Z,91.40
2018-03-30T08:20:34.486Z,91.30
2018-03-30T08:23:01.825Z,91.30
2018-03-30T08:25:29.322Z,91.60
2018-03-30T08:27:56.585Z,91.00
2018-03-30T08:30:24.288Z,91.20
2018-03-30T08:32:52.472Z,91.30
2018-03-30T08:35:20.267Z,91.30
2018-03-30T08:37:47.696Z,91.10
2018-03-30T08:40:15.005Z,91.30
2018-03-30T08:42:42.525Z,91.60
2018-03-30T08:45:10.625Z,92.20
2018-03-30T08:47:38.845Z,92.50
2018-03-30T08:50:06.228Z,92.50
2018-03-30T08:52:33.745Z,92.30
2018-03-30T08:55:01.808Z,91.70
2018-03-30T08:57:29.932Z,92.10
2018-03-30T08:59:57.586Z,92.10
2018-03-30T09:02:25.108Z,92.30
2018-03-30T09:04:52.449Z,92.50
2018-03-30T09:07:20.248Z,91.80
2018-03-30T09:09:47.628Z,92.00
2018-03-30T09:12:15.750Z,91.70
2018-03-30T09:14:43.790Z,91.70
2018-03-30T09:17:11.228Z,91.90
2018-03-30T09:19:38.788Z,92.00
2018-03-30T09:22:06.606Z,92.20
2018-03-30T09:24:33.932Z,92.00
2018-03-30T09:27:03.640Z,92.20
2018-03-30T09:29:31.107Z,92.20
2018-03-30T09:31:58.698Z,92.90
2018-03-30T09:34:26.067Z,92.00
2018-03-30T09:36:53.525Z,91.80
2018-03-30T09:39:21.647Z,91.70
2018-03-30T09:41:49.372Z,91.70
2018-03-30T09:44:16.967Z,91.60
2018-03-30T09:46:44.446Z,91.40
2018-03-30T09:49:11.868Z,91.70
2018-03-30T09:51:39.327Z,91.50
2018-03-30T09:54:07.493Z,91.50
2018-03-30T09:56:34.867Z,91.50
2018-03-30T09:59:02.429Z,91.50
2018-03-30T10:01:29.850Z,91.30
2018-03-30T10:03:57.285Z,91.20
2018-03-30T10:06:24.809Z,91.20
2018-03-30T10:08:52.168Z,91.50
2018-03-30T10:11:19.970Z,91.70
2018-03-30T10:13:47.396Z,92.20
2018-03-30T10:16:14.710Z,92.00
2018-03-30T10:18:42.086Z,91.60
2018-03-30T10:21:10.486Z,91.90
2018-03-30T10:23:37.786Z,91.80
2018-03-30T10:26:05.147Z,91.80
2018-03-30T10:28:32.610Z,91.80
2018-03-30T10:31:00.007Z,91.80
2018-03-30T10:33:28.967Z,91.90
2018-03-30T10:35:56.427Z,91.90
2018-03-30T10:38:24.526Z,91.90
2018-03-30T10:40:51.866Z,92.30
2018-03-30T10:43:19.286Z,92.10
2018-03-30T10:45:46.605Z,91.90
2018-03-30T10:48:14.048Z,91.50
2018-03-30T10:50:42.229Z,91.40
2018-03-30T10:53:09.866Z,91.40
2018-03-30T10:55:39.851Z,91.60
2018-03-30T10:58:07.285Z,91.90
2018-03-30T11:00:34.978Z,91.90
2018-03-30T11:03:02.448Z,91.90
2018-03-30T11:05:29.830Z,91.80
2018-03-30T11:07:57.147Z,91.80
2018-03-30T11:10:25.348Z,91.80
2018-03-30T11:12:53.607Z,91.40
2018-03-30T11:15:21.147Z,91.40
2018-03-30T11:17:48.446Z,91.40
2018-03-30T11:20:15.867Z,91.60
2018-03-30T11:22:44.507Z,91.70
2018-03-30T11:25:11.887Z,91.40
2018-03-30T11:27:39.447Z,91.40
2018-03-30T11:30:06.807Z,91.50
2018-03-30T11:32:34.166Z,91.30
2018-03-30T11:35:02.200Z,91.40
2018-03-30T11:37:30.587Z,91.70
2018-03-30T11:39:57.915Z,91.70
2018-03-30T11:42:25.427Z,91.70
2018-03-30T11:44:53.248Z,91.50
2018-03-30T11:47:20.658Z,91.50
2018-03-30T11:49:48.127Z,91.60
2018-03-30T11:52:15.488Z,91.50
2018-03-30T11:54:42.927Z,92.00
2018-03-30T11:57:10.807Z,91.70
2018-03-30T11:59:38.107Z,91.40
2018-03-30T12:02:05.488Z,91.80
2018-03-30T12:04:32.865Z,91.30
2018-03-30T12:07:00.269Z,91.30
2018-03-30T12:09:28.305Z,90.70
2018-03-30T12:11:55.788Z,90.70
2018-03-30T12:14:24.716Z,91.60
2018-03-30T12:16:52.941Z,91.70
2018-03-30T12:19:20.548Z,91.70
2018-03-30T12:21:50.273Z,91.80
2018-03-30T12:24:17.526Z,91.70
2018-03-30T12:26:45.891Z,85.20
2018-03-30T12:29:14.254Z,90.70
2018-03-30T12:31:42.008Z,90.00
2018-03-30T12:34:10.288Z,91.00
2018-03-30T12:36:38.287Z,91.00
2018-03-30T12:39:06.707Z,86.80
2018-03-30T12:41:36.207Z,79.70
2018-03-30T12:44:05.608Z,87.00
2018-03-30T12:46:33.885Z,91.10
2018-03-30T12:49:03.490Z,90.00
2018-03-30T12:51:32.231Z,91.10
2018-03-30T12:53:59.569Z,91.40
2018-03-30T12:56:26.973Z,90.30
2018-03-30T12:58:54.453Z,84.20
2018-03-30T13:01:22.861Z,85.10
2018-03-30T13:03:50.368Z,91.20
2018-03-30T13:06:20.047Z,91.80
2018-03-30T13:08:49.763Z,91.40
2018-03-30T13:11:18.328Z,91.80
2018-03-30T13:13:46.585Z,89.30
2018-03-30T13:16:18.963Z,81.20
2018-03-30T13:18:47.285Z,91.90
2018-03-30T13:21:16.129Z,91.90
2018-03-30T13:23:44.007Z,92.50
2018-03-30T13:26:12.851Z,92.40
2018-03-30T13:28:40.573Z,91.30
2018-03-30T13:31:08.887Z,91.90
2018-03-30T13:33:37.285Z,91.30
2018-03-30T13:36:05.470Z,91.20
2018-03-30T13:38:33.128Z,87.90
2018-03-30T13:41:01.985Z,91.80
2018-03-30T13:43:29.410Z,92.10
2018-03-30T13:45:58.156Z,91.60
2018-03-30T13:48:34.185Z,91.30
2018-03-30T13:51:06.773Z,91.30
2018-03-30T13:53:35.288Z,91.40
2018-03-30T13:56:06.027Z,91.30
2018-03-30T13:58:34.162Z,91.30
2018-03-30T14:01:04.608Z,91.20
2018-03-30T14:03:34.636Z,90.90
2018-03-30T14:06:06.213Z,91.20
2018-03-30T14:08:35.010Z,91.10
2018-03-30T14:11:03.347Z,91.20
2018-03-30T14:13:31.850Z,91.00
2018-03-30T14:16:02.850Z,90.60
2018-03-30T14:18:32.211Z,90.60
2018-03-30T14:21:04.031Z,90.70
2018-03-30T14:23:32.574Z,90.50
2018-03-30T14:26:01.767Z,90.40
2018-03-30T14:28:29.874Z,90.40
2018-03-30T14:31:01.950Z,90.30
2018-03-30T14:33:29.826Z,90.30
2018-03-30T14:36:17.192Z,90.20
2018-03-30T14:38:45.630Z,89.90
2018-03-30T14:41:14.472Z,90.10
2018-03-30T14:43:41.879Z,90.40
2018-03-30T14:46:10.879Z,90.50
2018-03-30T14:48:40.269Z,90.50
2018-03-30T14:51:10.613Z,90.60
2018-03-30T14:53:42.192Z,90.60
2018-03-30T14:56:12.606Z,90.60
2018-03-30T14:58:41.810Z,90.60
2018-03-30T15:01:19.237Z,90.60
2018-03-30T15:03:50.995Z,90.50
2018-03-30T15:06:24.269Z,90.90
2018-03-30T15:08:53.256Z,90.60
2018-03-30T15:11:26.719Z,90.40
2018-03-30T15:13:56.649Z,90.50
2018-03-30T15:16:25.090Z,90.30
2018-03-30T15:18:52.450Z,90.50
2018-03-30T15:21:23.813Z,90.70
2018-03-30T15:23:55.174Z,90.60
2018-03-30T15:26:28.471Z,90.70
2018-03-30T15:28:56.932Z,90.80
2018-03-30T15:31:25.070Z,90.50
2018-03-30T15:33:54.687Z,90.30
2018-03-30T15:36:22.104Z,90.30
2018-03-30T15:38:49.854Z,90.30
2018-03-30T15:41:17.411Z,90.70
2018-03-30T15:43:46.650Z,90.60
2018-03-30T15:46:15.007Z,90.70
2018-03-30T15:48:42.392Z,90.80
2018-03-30T15:51:09.773Z,90.60
2018-03-30T15:53:37.298Z,90.80
2018-03-30T15:56:05.612Z,91.20
2018-03-30T15:58:33.753Z,91.20
2018-03-30T16:01:01.109Z,91.20
2018-03-30T16:03:28.606Z,91.40
2018-03-30T16:05:56.006Z,91.30
2018-03-30T16:08:23.566Z,91.70
2018-03-30T16:10:51.866Z,91.50
2018-03-30T16:13:19.160Z,91.40
2018-03-30T16:15:48.582Z,91.70
2018-03-30T16:18:16.151Z,91.70
2018-03-30T16:20:43.893Z,91.80
2018-03-30T16:23:10.947Z,91.80
2018-03-30T16:25:37.938Z,91.70
2018-03-30T16:28:08.396Z,91.90
2018-03-30T16:30:35.684Z,91.90
2018-03-30T16:33:02.890Z,91.80
2018-03-30T16:35:29.987Z,90.40
2018-03-30T16:37:57.425Z,90.30
2018-03-30T16:40:24.571Z,90.10
2018-03-30T16:42:51.535Z,90.40
2018-03-30T16:45:18.639Z,87.10
2018-03-30T16:47:45.715Z,90.80
2018-03-30T16:50:16.029Z,86.80
2018-03-30T16:55:30.711Z,89.00
2018-03-30T16:57:58.050Z,91.10
2018-03-30T17:00:30.951Z,87.40
2018-03-30T17:05:29.235Z,90.10
2018-03-30T17:07:56.396Z,88.10
2018-03-30T17:10:23.414Z,89.30
2018-03-30T17:12:50.535Z,88.80
2018-03-30T17:15:21.712Z,89.10
2018-03-30T17:17:49.430Z,90.10
2018-03-30T17:20:16.532Z,91.90
2018-03-30T17:22:43.968Z,93.90
2018-03-30T17:25:12.452Z,94.50
2018-03-30T17:27:40.107Z,94.50
2018-03-30T17:30:07.328Z,94.30
2018-03-30T17:32:34.872Z,94.20
2018-03-30T17:35:02.097Z,94.10
2018-03-30T17:37:30.532Z,94.10
2018-03-30T17:39:58.831Z,94.30
2018-03-30T17:42:25.884Z,94.20
2018-03-30T17:44:53.089Z,94.20
2018-03-30T17:47:21.229Z,94.30
2018-03-30T17:49:48.159Z,94.30
2018-03-30T17:52:15.353Z,94.50
2018-03-30T17:54:45.155Z,94.60
2018-03-30T17:57:14.786Z,94.50
2018-03-30T17:59:41.954Z,94.40
2018-03-30T18:02:09.151Z,94.20
2018-03-30T18:04:36.452Z,94.20
2018-03-30T18:07:03.649Z,94.10
2018-03-30T18:09:30.848Z,93.80
2018-03-30T18:11:59.422Z,93.90
2018-03-30T18:14:32.857Z,93.90
2018-03-30T18:17:00.293Z,93.80
2018-03-30T18:19:27.888Z,93.80
2018-03-30T18:21:56.307Z,93.90
2018-03-30T18:24:23.740Z,94.30
2018-03-30T18:26:51.619Z,94.80
2018-03-30T18:29:22.806Z,95.00
2018-03-30T18:31:50.928Z,95.00
2018-03-30T18:34:18.502Z,95.10
2018-03-30T18:36:45.736Z,95.10
2018-03-30T18:39:12.831Z,95.10
2018-03-30T18:41:40.308Z,95.10
2018-03-30T18:44:08.372Z,95.00
2018-03-30T18:46:36.030Z,95.00
2018-03-30T18:49:07.986Z,94.80
2018-03-30T18:51:35.514Z,94.90
2018-03-30T18:54:05.231Z,95.00
2018-03-30T18:56:34.970Z,95.10
2018-03-30T18:59:02.703Z,95.30
2018-03-30T19:01:29.899Z,95.70
2018-03-30T19:03:56.994Z,95.90
2018-03-30T19:06:25.273Z,95.90
2018-03-30T19:08:52.587Z,96.00
2018-03-30T19:11:20.289Z,96.00
2018-03-30T19:13:47.491Z,96.00
2018-03-30T19:16:16.081Z,95.90
2018-03-30T19:18:48.304Z,95.70
2018-03-30T19:21:16.572Z,95.70
2018-03-30T19:23:44.884Z,95.70
2018-03-30T19:26:15.655Z,95.40
2018-03-30T19:28:43.558Z,95.20
2018-03-30T19:31:10.711Z,95.10
2018-03-30T19:33:37.932Z,95.30
2018-03-30T19:36:05.200Z,95.30
2018-03-30T19:38:32.869Z,95.10
2018-03-30T19:41:00.028Z,95.30
2018-03-30T19:43:28.624Z,95.30
2018-03-30T19:45:56.158Z,95.40
2018-03-30T19:48:23.452Z,95.30
2018-03-30T19:50:51.332Z,95.30
2018-03-30T19:53:18.572Z,95.30
2018-03-30T19:55:46.367Z,95.10
2018-03-30T19:58:13.748Z,95.10
2018-03-30T20:00:41.312Z,95.10
2018-03-30T20:03:08.930Z,94.90
2018-03-30T20:05:35.969Z,95.40
2018-03-30T20:08:03.495Z,95.70
2018-03-30T20:10:40.114Z,96.00
2018-03-30T20:13:07.382Z,96.30
2018-03-30T20:15:34.619Z,96.50
2018-03-30T20:18:01.829Z,96.70
2018-03-30T20:20:28.997Z,96.90
2018-03-30T20:22:56.291Z,97.10
2018-03-30T20:25:23.829Z,97.30
2018-03-30T20:30:34.466Z,97.10
2018-03-30T20:39:10.029Z,96.70
2018-03-30T20:50:01.221Z,96.80
2018-03-30T20:52:38.407Z,96.90
2018-03-30T20:55:15.495Z,97.00
2018-03-30T21:11:58.352Z,96.80
2018-03-30T21:20:02.455Z,96.30
2018-03-30T21:25:18.286Z,97.00
2018-03-30T21:27:48.249Z,97.20
2018-03-30T21:30:23.296Z,97.30
2018-03-30T21:33:08.346Z,97.10
2018-03-30T21:35:46.003Z,97.00
2018-03-30T21:38:15.325Z,96.70
2018-03-30T21:43:25.364Z,96.50
2018-03-30T21:45:56.134Z,96.60
2018-03-30T21:51:16.505Z,92.90
2018-03-30T21:56:18.560Z,94.90
2018-03-30T21:58:45.540Z,95.90
2018-03-30T22:01:12.625Z,96.70
2018-03-30T22:06:33.632Z,97.50
2018-03-30T22:09:00.813Z,97.90
2018-03-30T22:11:29.654Z,98.00
2018-03-30T22:13:56.662Z,98.10
2018-03-30T22:16:23.614Z,98.00
2018-03-30T22:18:51.357Z,97.80
2018-03-30T22:21:18.390Z,97.90
2018-03-30T22:23:46.190Z,97.90
2018-03-30T22:26:13.237Z,97.90
2018-03-30T22:28:40.270Z,97.80
2018-03-30T22:31:07.256Z,97.80
2018-03-30T22:33:34.303Z,97.80
2018-03-30T22:36:01.306Z,97.70
2018-03-30T22:38:28.308Z,97.80
2018-03-30T22:40:55.315Z,97.80
2018-03-30T22:43:22.376Z,97.80
2018-03-30T22:45:49.339Z,97.80
2018-03-30T22:48:16.395Z,97.70
2018-03-30T22:50:43.394Z,97.50
2018-03-30T22:53:10.376Z,97.40
2018-03-30T22:55:38.114Z,97.20
2018-03-30T22:58:05.110Z,97.50
2018-03-30T23:00:32.117Z,97.30
2018-03-30T23:02:59.127Z,97.30
2018-03-30T23:05:26.162Z,97.40
2018-03-30T23:07:53.197Z,97.40
2018-03-30T23:10:20.209Z,97.10
2018-03-30T23:12:47.188Z,97.00
2018-03-30T23:15:14.227Z,96.80
2018-03-30T23:17:41.271Z,96.80
2018-03-30T23:20:08.248Z,97.00
2018-03-30T23:22:35.996Z,97.40
2018-03-30T23:25:02.973Z,97.40
2018-03-30T23:27:30.051Z,97.50
2018-03-30T23:29:57.115Z,97.40
2018-03-30T23:32:24.159Z,97.70
2018-03-30T23:34:51.208Z,97.40
2018-03-30T23:37:21.944Z,97.40
2018-03-30T23:39:49.680Z,97.20
2018-03-30T23:42:16.643Z,97.30
2018-03-30T23:44:43.634Z,97.20
2018-03-30T23:47:10.631Z,97.20
2018-03-30T23:49:38.392Z,96.90
2018-03-30T23:52:05.340Z,96.90
2018-03-30T23:54:32.354Z,96.50
2018-03-30T23:57:00.812Z,96.80
2018-03-30T23:59:27.845Z,96.80
